sensor_id;sensor_type;location;lat;lon;timestamp;P1;durP1;ratioP1;P2;durP2;ratioP2
1995;SDS011;38556;47.068;15.408;2023-02-15T00:00:04;40.67;;;36.75;;
1995;SDS011;38556;47.068;15.408;2023-02-15T00:02:33;39.88;;;36.03;;
1995;SDS011;38556;47.068;15.408;2023-02-15T00:05:01;40.53;;;36.60;;
1995;SDS011;38556;47.068;15.408;2023-02-15T00:07:29;38.58;;;34.92;;
1995;SDS011;38556;47.068;15.408;2023-02-15T00:09:57;39.75;;;36.13;;
1995;SDS011;38556;47.068;15.408;2023-02-15T00:12:24;39.15;;;35.25;;
1995;SDS011;38556;47.068;15.408;2023-02-15T00:14:52;39.97;;;36.05;;
1995;SDS011;38556;47.068;15.408;2023-02-15T00:17:19;41.58;;;37.33;;
1995;SDS011;38556;47.068;15.408;2023-02-15T00:19:46;40.05;;;36.15;;
1995;SDS011;38556;47.068;15.408;2023-02-15T00:22:14;41.00;;;36.85;;
1995;SDS011;38556;47.068;15.408;2023-02-15T00:24:42;40.05;;;36.00;;
1995;SDS011;38556;47.068;15.408;2023-02-15T00:27:10;39.75;;;35.95;;
1995;SDS011;38556;47.068;15.408;2023-02-15T00:29:37;40.17;;;36.42;;
1995;SDS011;38556;47.068;15.408;2023-02-15T00:32:04;39.60;;;35.88;;
1995;SDS011;38556;47.068;15.408;2023-02-15T00:34:32;40.63;;;36.65;;
1995;SDS011;38556;47.068;15.408;2023-02-15T00:37:00;37.45;;;34.22;;
1995;SDS011;38556;47.068;15.408;2023-02-15T00:39:27;40.53;;;36.95;;
1995;SDS011;38556;47.068;15.408;2023-02-15T00:41:56;37.70;;;34.25;;
1995;SDS011;38556;47.068;15.408;2023-02-15T00:44:23;39.70;;;36.08;;
1995;SDS011;38556;47.068;15.408;2023-02-15T00:46:50;49.60;;;44.60;;
1995;SDS011;38556;47.068;15.408;2023-02-15T00:49:17;42.53;;;38.75;;
1995;SDS011;38556;47.068;15.408;2023-02-15T00:51:45;39.00;;;35.60;;
1995;SDS011;38556;47.068;15.408;2023-02-15T00:54:12;39.28;;;35.92;;
1995;SDS011;38556;47.068;15.408;2023-02-15T00:56:39;39.30;;;35.75;;
1995;SDS011;38556;47.068;15.408;2023-02-15T00:59:09;38.30;;;34.80;;
1995;SDS011;38556;47.068;15.408;2023-02-15T01:01:36;55.38;;;49.53;;
1995;SDS011;38556;47.068;15.408;2023-02-15T01:04:04;49.17;;;44.53;;
1995;SDS011;38556;47.068;15.408;2023-02-15T01:06:31;44.65;;;40.35;;
1995;SDS011;38556;47.068;15.408;2023-02-15T01:08:58;41.30;;;37.40;;
1995;SDS011;38556;47.068;15.408;2023-02-15T01:11:25;40.47;;;36.85;;
1995;SDS011;38556;47.068;15.408;2023-02-15T01:13:53;40.53;;;36.85;;
1995;SDS011;38556;47.068;15.408;2023-02-15T01:16:24;39.90;;;36.20;;
1995;SDS011;38556;47.068;15.408;2023-02-15T01:18:52;38.33;;;34.83;;
1995;SDS011;38556;47.068;15.408;2023-02-15T01:21:21;39.22;;;35.92;;
1995;SDS011;38556;47.068;15.408;2023-02-15T01:23:50;39.83;;;35.92;;
1995;SDS011;38556;47.068;15.408;2023-02-15T01:26:17;40.17;;;36.53;;
1995;SDS011;38556;47.068;15.408;2023-02-15T01:28:45;40.58;;;36.78;;
1995;SDS011;38556;47.068;15.408;2023-02-15T01:31:13;40.20;;;36.33;;
1995;SDS011;38556;47.068;15.408;2023-02-15T01:33:44;40.58;;;36.92;;
1995;SDS011;38556;47.068;15.408;2023-02-15T01:36:13;38.75;;;35.42;;
1995;SDS011;38556;47.068;15.408;2023-02-15T01:38:43;40.03;;;36.58;;
1995;SDS011;38556;47.068;15.408;2023-02-15T01:41:10;41.97;;;38.08;;
1995;SDS011;38556;47.068;15.408;2023-02-15T01:43:49;40.25;;;36.72;;
1995;SDS011;38556;47.068;15.408;2023-02-15T01:46:19;41.50;;;37.35;;
1995;SDS011;38556;47.068;15.408;2023-02-15T01:48:52;40.17;;;36.55;;
1995;SDS011;38556;47.068;15.408;2023-02-15T01:51:23;40.50;;;36.60;;
1995;SDS011;38556;47.068;15.408;2023-02-15T01:53:55;41.30;;;37.50;;
1995;SDS011;38556;47.068;15.408;2023-02-15T01:56:28;40.47;;;36.78;;
1995;SDS011;38556;47.068;15.408;2023-02-15T01:59:00;40.20;;;36.45;;
1995;SDS011;38556;47.068;15.408;2023-02-15T02:01:36;38.53;;;35.13;;
1995;SDS011;38556;47.068;15.408;2023-02-15T02:04:08;38.78;;;35.03;;
1995;SDS011;38556;47.068;15.408;2023-02-15T02:06:39;40.83;;;36.95;;
1995;SDS011;38556;47.068;15.408;2023-02-15T02:09:07;40.05;;;36.35;;
1995;SDS011;38556;47.068;15.408;2023-02-15T02:11:35;38.85;;;35.50;;
1995;SDS011;38556;47.068;15.408;2023-02-15T02:14:02;40.40;;;36.92;;
1995;SDS011;38556;47.068;15.408;2023-02-15T02:20:21;39.72;;;36.28;;
1995;SDS011;38556;47.068;15.408;2023-02-15T02:26:13;40.95;;;37.35;;
1995;SDS011;38556;47.068;15.408;2023-02-15T02:32:11;39.17;;;35.47;;
1995;SDS011;38556;47.068;15.408;2023-02-15T02:35:05;38.90;;;35.15;;
1995;SDS011;38556;47.068;15.408;2023-02-15T02:37:41;37.95;;;34.47;;
1995;SDS011;38556;47.068;15.408;2023-02-15T02:40:19;39.47;;;35.80;;
1995;SDS011;38556;47.068;15.408;2023-02-15T02:42:54;39.00;;;35.50;;
1995;SDS011;38556;47.068;15.408;2023-02-15T02:45:30;40.25;;;36.65;;
1995;SDS011;38556;47.068;15.408;2023-02-15T02:48:04;39.20;;;35.75;;
1995;SDS011;38556;47.068;15.408;2023-02-15T02:50:38;37.83;;;34.70;;
1995;SDS011;38556;47.068;15.408;2023-02-15T02:53:06;38.97;;;35.47;;
1995;SDS011;38556;47.068;15.408;2023-02-15T02:55:35;39.65;;;36.10;;
1995;SDS011;38556;47.068;15.408;2023-02-15T02:58:09;39.63;;;35.90;;
1995;SDS011;38556;47.068;15.408;2023-02-15T03:00:41;39.85;;;36.15;;
1995;SDS011;38556;47.068;15.408;2023-02-15T03:03:12;39.83;;;36.15;;
1995;SDS011;38556;47.068;15.408;2023-02-15T03:05:47;37.88;;;34.47;;
1995;SDS011;38556;47.068;15.408;2023-02-15T03:08:17;39.55;;;36.15;;
1995;SDS011;38556;47.068;15.408;2023-02-15T03:10:48;38.60;;;35.15;;
1995;SDS011;38556;47.068;15.408;2023-02-15T03:13:18;39.28;;;36.03;;
1995;SDS011;38556;47.068;15.408;2023-02-15T03:15:45;40.78;;;37.13;;
1995;SDS011;38556;47.068;15.408;2023-02-15T03:18:31;39.55;;;36.05;;
1995;SDS011;38556;47.068;15.408;2023-02-15T03:21:04;41.03;;;37.17;;
1995;SDS011;38556;47.068;15.408;2023-02-15T03:23:34;40.97;;;36.92;;
1995;SDS011;38556;47.068;15.408;2023-02-15T03:26:05;38.35;;;35.10;;
1995;SDS011;38556;47.068;15.408;2023-02-15T03:28:35;40.13;;;36.53;;
1995;SDS011;38556;47.068;15.408;2023-02-15T03:31:06;40.65;;;37.00;;
1995;SDS011;38556;47.068;15.408;2023-02-15T03:33:37;42.72;;;38.67;;
1995;SDS011;38556;47.068;15.408;2023-02-15T03:36:14;39.65;;;36.25;;
1995;SDS011;38556;47.068;15.408;2023-02-15T03:38:49;42.40;;;38.67;;
1995;SDS011;38556;47.068;15.408;2023-02-15T03:41:24;39.53;;;36.22;;
1995;SDS011;38556;47.068;15.408;2023-02-15T03:43:56;43.78;;;38.72;;
1995;SDS011;38556;47.068;15.408;2023-02-15T03:46:28;42.92;;;39.05;;
1995;SDS011;38556;47.068;15.408;2023-02-15T03:49:01;42.28;;;38.28;;
1995;SDS011;38556;47.068;15.408;2023-02-15T03:51:33;41.72;;;37.97;;
1995;SDS011;38556;47.068;15.408;2023-02-15T03:54:07;41.90;;;37.63;;
1995;SDS011;38556;47.068;15.408;2023-02-15T03:56:36;38.75;;;35.30;;
1995;SDS011;38556;47.068;15.408;2023-02-15T03:59:06;40.17;;;36.70;;
1995;SDS011;38556;47.068;15.408;2023-02-15T04:01:54;40.50;;;36.95;;
1995;SDS011;38556;47.068;15.408;2023-02-15T04:04:31;41.30;;;37.60;;
1995;SDS011;38556;47.068;15.408;2023-02-15T04:07:02;37.42;;;34.40;;
1995;SDS011;38556;47.068;15.408;2023-02-15T04:09:32;41.10;;;36.90;;
1995;SDS011;38556;47.068;15.408;2023-02-15T04:12:13;39.05;;;35.40;;
1995;SDS011;38556;47.068;15.408;2023-02-15T04:14:40;40.35;;;36.95;;
1995;SDS011;38556;47.068;15.408;2023-02-15T04:17:25;39.28;;;35.90;;
1995;SDS011;38556;47.068;15.408;2023-02-15T04:19:53;39.90;;;35.95;;
1995;SDS011;38556;47.068;15.408;2023-02-15T04:22:39;38.35;;;34.53;;
1995;SDS011;38556;47.068;15.408;2023-02-15T04:25:24;39.55;;;36.15;;
1995;SDS011;38556;47.068;15.408;2023-02-15T04:27:52;41.13;;;37.33;;
1995;SDS011;38556;47.068;15.408;2023-02-15T04:30:20;40.92;;;37.00;;
1995;SDS011;38556;47.068;15.408;2023-02-15T04:32:50;40.80;;;37.20;;
1995;SDS011;38556;47.068;15.408;2023-02-15T04:35:17;43.72;;;39.17;;
1995;SDS011;38556;47.068;15.408;2023-02-15T04:37:46;41.55;;;37.55;;
1995;SDS011;38556;47.068;15.408;2023-02-15T04:40:14;41.80;;;37.90;;
1995;SDS011;38556;47.068;15.408;2023-02-15T04:42:41;42.65;;;38.60;;
1995;SDS011;38556;47.068;15.408;2023-02-15T04:45:08;42.15;;;37.75;;
1995;SDS011;38556;47.068;15.408;2023-02-15T04:47:36;41.70;;;37.60;;
1995;SDS011;38556;47.068;15.408;2023-02-15T04:50:03;43.33;;;38.95;;
1995;SDS011;38556;47.068;15.408;2023-02-15T04:52:32;42.75;;;38.33;;
1995;SDS011;38556;47.068;15.408;2023-02-15T04:55:00;42.58;;;38.05;;
1995;SDS011;38556;47.068;15.408;2023-02-15T04:57:28;41.72;;;37.78;;
1995;SDS011;38556;47.068;15.408;2023-02-15T04:59:55;44.55;;;40.17;;
1995;SDS011;38556;47.068;15.408;2023-02-15T05:02:24;43.60;;;38.92;;
1995;SDS011;38556;47.068;15.408;2023-02-15T05:04:51;46.55;;;41.53;;
1995;SDS011;38556;47.068;15.408;2023-02-15T05:07:18;45.30;;;38.97;;
1995;SDS011;38556;47.068;15.408;2023-02-15T05:09:46;43.25;;;39.00;;
1995;SDS011;38556;47.068;15.408;2023-02-15T05:12:15;45.03;;;39.78;;
1995;SDS011;38556;47.068;15.408;2023-02-15T05:14:42;44.75;;;39.35;;
1995;SDS011;38556;47.068;15.408;2023-02-15T05:17:09;48.03;;;41.60;;
1995;SDS011;38556;47.068;15.408;2023-02-15T05:19:37;41.97;;;37.90;;
1995;SDS011;38556;47.068;15.408;2023-02-15T05:22:04;47.75;;;42.65;;
1995;SDS011;38556;47.068;15.408;2023-02-15T05:24:31;47.88;;;42.72;;
1995;SDS011;38556;47.068;15.408;2023-02-15T05:27:17;46.70;;;41.15;;
1995;SDS011;38556;47.068;15.408;2023-02-15T05:30:02;45.05;;;40.55;;
1995;SDS011;38556;47.068;15.408;2023-02-15T05:32:30;47.08;;;41.97;;
1995;SDS011;38556;47.068;15.408;2023-02-15T05:34:57;44.78;;;39.90;;
1995;SDS011;38556;47.068;15.408;2023-02-15T05:37:25;46.85;;;39.70;;
1995;SDS011;38556;47.068;15.408;2023-02-15T05:39:52;42.90;;;38.53;;
1995;SDS011;38556;47.068;15.408;2023-02-15T05:42:20;44.58;;;39.92;;
1995;SDS011;38556;47.068;15.408;2023-02-15T05:44:48;45.33;;;40.15;;
1995;SDS011;38556;47.068;15.408;2023-02-15T05:47:15;42.97;;;38.45;;
1995;SDS011;38556;47.068;15.408;2023-02-15T05:49:42;43.85;;;38.90;;
1995;SDS011;38556;47.068;15.408;2023-02-15T05:52:09;44.10;;;39.50;;
1995;SDS011;38556;47.068;15.408;2023-02-15T05:54:37;41.90;;;37.67;;
1995;SDS011;38556;47.068;15.408;2023-02-15T05:57:05;41.78;;;37.85;;
1995;SDS011;38556;47.068;15.408;2023-02-15T05:59:33;43.85;;;38.63;;
1995;SDS011;38556;47.068;15.408;2023-02-15T06:02:01;41.90;;;37.58;;
1995;SDS011;38556;47.068;15.408;2023-02-15T06:04:28;45.88;;;40.75;;
1995;SDS011;38556;47.068;15.408;2023-02-15T06:06:55;41.55;;;37.13;;
1995;SDS011;38556;47.068;15.408;2023-02-15T06:09:22;42.10;;;37.65;;
1995;SDS011;38556;47.068;15.408;2023-02-15T06:11:49;41.58;;;37.08;;
1995;SDS011;38556;47.068;15.408;2023-02-15T06:14:17;39.67;;;35.85;;
1995;SDS011;38556;47.068;15.408;2023-02-15T06:16:46;42.65;;;37.90;;
1995;SDS011;38556;47.068;15.408;2023-02-15T06:19:13;73.38;;;42.50;;
1995;SDS011;38556;47.068;15.408;2023-02-15T06:21:40;42.97;;;38.38;;
1995;SDS011;38556;47.068;15.408;2023-02-15T06:24:07;41.83;;;37.70;;
1995;SDS011;38556;47.068;15.408;2023-02-15T06:26:35;44.42;;;39.65;;
1995;SDS011;38556;47.068;15.408;2023-02-15T06:29:02;40.95;;;36.90;;
1995;SDS011;38556;47.068;15.408;2023-02-15T06:31:30;43.53;;;39.13;;
1995;SDS011;38556;47.068;15.408;2023-02-15T06:33:58;43.90;;;39.67;;
1995;SDS011;38556;47.068;15.408;2023-02-15T06:36:27;44.17;;;39.78;;
1995;SDS011;38556;47.068;15.408;2023-02-15T06:38:54;44.50;;;39.90;;
1995;SDS011;38556;47.068;15.408;2023-02-15T06:41:22;45.92;;;41.00;;
1995;SDS011;38556;47.068;15.408;2023-02-15T06:43:49;45.08;;;40.40;;
1995;SDS011;38556;47.068;15.408;2023-02-15T06:46:17;41.22;;;36.97;;
1995;SDS011;38556;47.068;15.408;2023-02-15T06:48:44;45.17;;;40.35;;
1995;SDS011;38556;47.068;15.408;2023-02-15T06:51:13;43.03;;;38.75;;
1995;SDS011;38556;47.068;15.408;2023-02-15T06:53:41;49.65;;;42.42;;
1995;SDS011;38556;47.068;15.408;2023-02-15T06:56:08;43.95;;;39.55;;
1995;SDS011;38556;47.068;15.408;2023-02-15T06:58:37;42.85;;;38.58;;
1995;SDS011;38556;47.068;15.408;2023-02-15T07:01:05;44.65;;;40.05;;
1995;SDS011;38556;47.068;15.408;2023-02-15T07:03:34;44.45;;;40.08;;
1995;SDS011;38556;47.068;15.408;2023-02-15T07:06:02;43.25;;;38.95;;
1995;SDS011;38556;47.068;15.408;2023-02-15T07:08:33;44.42;;;39.63;;
1995;SDS011;38556;47.068;15.408;2023-02-15T07:11:00;44.35;;;39.72;;
1995;SDS011;38556;47.068;15.408;2023-02-15T07:13:42;45.45;;;40.67;;
1995;SDS011;38556;47.068;15.408;2023-02-15T07:16:09;42.85;;;38.60;;
1995;SDS011;38556;47.068;15.408;2023-02-15T07:18:37;43.20;;;38.72;;
1995;SDS011;38556;47.068;15.408;2023-02-15T07:21:05;43.42;;;39.05;;
1995;SDS011;38556;47.068;15.408;2023-02-15T07:23:35;47.58;;;41.50;;
1995;SDS011;38556;47.068;15.408;2023-02-15T07:26:03;43.80;;;39.42;;
1995;SDS011;38556;47.068;15.408;2023-02-15T07:28:32;46.75;;;40.42;;
1995;SDS011;38556;47.068;15.408;2023-02-15T07:31:00;50.60;;;45.10;;
1995;SDS011;38556;47.068;15.408;2023-02-15T07:33:29;46.05;;;41.05;;
1995;SDS011;38556;47.068;15.408;2023-02-15T07:35:58;43.80;;;39.13;;
1995;SDS011;38556;47.068;15.408;2023-02-15T07:38:29;45.17;;;40.40;;
1995;SDS011;38556;47.068;15.408;2023-02-15T07:40:59;43.72;;;39.28;;
1995;SDS011;38556;47.068;15.408;2023-02-15T07:43:27;49.13;;;43.88;;
1995;SDS011;38556;47.068;15.408;2023-02-15T07:45:58;49.88;;;43.78;;
1995;SDS011;38556;47.068;15.408;2023-02-15T07:48:26;45.45;;;40.58;;
1995;SDS011;38556;47.068;15.408;2023-02-15T07:50:54;49.70;;;43.75;;
1995;SDS011;38556;47.068;15.408;2023-02-15T07:53:25;48.92;;;43.63;;
1995;SDS011;38556;47.068;15.408;2023-02-15T07:55:52;47.45;;;42.65;;
1995;SDS011;38556;47.068;15.408;2023-02-15T07:58:21;47.97;;;42.97;;
1995;SDS011;38556;47.068;15.408;2023-02-15T08:01:09;52.45;;;44.13;;
1995;SDS011;38556;47.068;15.408;2023-02-15T08:03:36;47.90;;;42.90;;
1995;SDS011;38556;47.068;15.408;2023-02-15T08:06:04;49.10;;;43.80;;
1995;SDS011;38556;47.068;15.408;2023-02-15T08:08:32;47.92;;;43.05;;
1995;SDS011;38556;47.068;15.408;2023-02-15T08:11:01;49.30;;;44.20;;
1995;SDS011;38556;47.068;15.408;2023-02-15T08:13:49;51.28;;;45.80;;
1995;SDS011;38556;47.068;15.408;2023-02-15T08:16:24;47.67;;;42.75;;
1995;SDS011;38556;47.068;15.408;2023-02-15T08:18:53;48.80;;;43.38;;
1995;SDS011;38556;47.068;15.408;2023-02-15T08:21:21;48.60;;;43.78;;
1995;SDS011;38556;47.068;15.408;2023-02-15T08:23:49;46.88;;;42.00;;
1995;SDS011;38556;47.068;15.408;2023-02-15T08:26:18;48.92;;;43.03;;
1995;SDS011;38556;47.068;15.408;2023-02-15T08:28:46;49.72;;;44.00;;
1995;SDS011;38556;47.068;15.408;2023-02-15T08:31:15;50.13;;;44.45;;
1995;SDS011;38556;47.068;15.408;2023-02-15T08:33:43;49.33;;;44.00;;
1995;SDS011;38556;47.068;15.408;2023-02-15T08:36:12;48.60;;;42.72;;
1995;SDS011;38556;47.068;15.408;2023-02-15T08:38:41;49.25;;;43.35;;
1995;SDS011;38556;47.068;15.408;2023-02-15T08:41:09;49.17;;;44.00;;
1995;SDS011;38556;47.068;15.408;2023-02-15T08:43:41;47.42;;;42.92;;
1995;SDS011;38556;47.068;15.408;2023-02-15T08:46:10;50.22;;;45.10;;
1995;SDS011;38556;47.068;15.408;2023-02-15T08:48:39;47.60;;;42.40;;
1995;SDS011;38556;47.068;15.408;2023-02-15T08:51:08;47.05;;;42.10;;
1995;SDS011;38556;47.068;15.408;2023-02-15T08:53:37;43.95;;;39.63;;
1995;SDS011;38556;47.068;15.408;2023-02-15T08:56:05;43.97;;;39.22;;
1995;SDS011;38556;47.068;15.408;2023-02-15T08:58:33;49.22;;;44.15;;
1995;SDS011;38556;47.068;15.408;2023-02-15T09:01:07;45.78;;;40.88;;
1995;SDS011;38556;47.068;15.408;2023-02-15T09:03:35;46.88;;;41.80;;
1995;SDS011;38556;47.068;15.408;2023-02-15T09:06:05;47.28;;;42.22;;
1995;SDS011;38556;47.068;15.408;2023-02-15T09:08:32;47.03;;;42.28;;
1995;SDS011;38556;47.068;15.408;2023-02-15T09:11:09;46.83;;;42.03;;
1995;SDS011;38556;47.068;15.408;2023-02-15T09:13:38;49.75;;;44.72;;
1995;SDS011;38556;47.068;15.408;2023-02-15T09:16:07;50.83;;;45.28;;
1995;SDS011;38556;47.068;15.408;2023-02-15T09:18:36;50.33;;;45.13;;
1995;SDS011;38556;47.068;15.408;2023-02-15T09:21:07;48.40;;;43.22;;
1995;SDS011;38556;47.068;15.408;2023-02-15T09:23:35;49.95;;;44.90;;
1995;SDS011;38556;47.068;15.408;2023-02-15T09:26:04;52.97;;;47.33;;
1995;SDS011;38556;47.068;15.408;2023-02-15T09:28:33;48.55;;;43.20;;
1995;SDS011;38556;47.068;15.408;2023-02-15T09:31:07;49.88;;;44.83;;
1995;SDS011;38556;47.068;15.408;2023-02-15T09:33:36;52.17;;;46.72;;
1995;SDS011;38556;47.068;15.408;2023-02-15T09:36:04;52.53;;;47.22;;
1995;SDS011;38556;47.068;15.408;2023-02-15T09:38:40;53.10;;;47.13;;
1995;SDS011;38556;47.068;15.408;2023-02-15T09:41:13;52.00;;;46.50;;
1995;SDS011;38556;47.068;15.408;2023-02-15T09:43:54;49.20;;;43.53;;
1995;SDS011;38556;47.068;15.408;2023-02-15T09:46:36;52.92;;;47.50;;
1995;SDS011;38556;47.068;15.408;2023-02-15T09:49:16;53.78;;;48.05;;
1995;SDS011;38556;47.068;15.408;2023-02-15T09:51:56;57.92;;;47.70;;
1995;SDS011;38556;47.068;15.408;2023-02-15T09:54:45;56.78;;;50.35;;
1995;SDS011;38556;47.068;15.408;2023-02-15T09:57:22;57.30;;;50.08;;
1995;SDS011;38556;47.068;15.408;2023-02-15T10:00:00;51.92;;;46.50;;
1995;SDS011;38556;47.068;15.408;2023-02-15T10:02:43;56.40;;;49.10;;
1995;SDS011;38556;47.068;15.408;2023-02-15T10:05:25;57.63;;;49.65;;
1995;SDS011;38556;47.068;15.408;2023-02-15T10:08:05;58.08;;;50.28;;
1995;SDS011;38556;47.068;15.408;2023-02-15T10:10:53;55.47;;;49.83;;
1995;SDS011;38556;47.068;15.408;2023-02-15T10:13:47;53.97;;;48.25;;
1995;SDS011;38556;47.068;15.408;2023-02-15T10:16:31;57.92;;;49.70;;
1995;SDS011;38556;47.068;15.408;2023-02-15T10:19:07;58.72;;;52.28;;
1995;SDS011;38556;47.068;15.408;2023-02-15T10:21:44;57.40;;;51.10;;
1995;SDS011;38556;47.068;15.408;2023-02-15T10:24:26;55.85;;;49.92;;
1995;SDS011;38556;47.068;15.408;2023-02-15T10:27:18;59.83;;;51.75;;
1995;SDS011;38556;47.068;15.408;2023-02-15T10:29:48;61.13;;;52.97;;
1995;SDS011;38556;47.068;15.408;2023-02-15T10:32:23;55.55;;;49.15;;
1995;SDS011;38556;47.068;15.408;2023-02-15T10:34:54;56.20;;;50.30;;
1995;SDS011;38556;47.068;15.408;2023-02-15T10:40:32;54.92;;;47.03;;
1995;SDS011;38556;47.068;15.408;2023-02-15T10:45:54;54.38;;;48.05;;
1995;SDS011;38556;47.068;15.408;2023-02-15T10:51:26;54.17;;;46.30;;
1995;SDS011;38556;47.068;15.408;2023-02-15T10:54:06;62.08;;;49.45;;
1995;SDS011;38556;47.068;15.408;2023-02-15T10:56:43;54.92;;;47.17;;
1995;SDS011;38556;47.068;15.408;2023-02-15T10:59:24;54.55;;;48.78;;
1995;SDS011;38556;47.068;15.408;2023-02-15T11:02:09;56.60;;;50.50;;
1995;SDS011;38556;47.068;15.408;2023-02-15T11:04:48;56.42;;;50.25;;
1995;SDS011;38556;47.068;15.408;2023-02-15T11:07:22;58.35;;;51.97;;
1995;SDS011;38556;47.068;15.408;2023-02-15T11:09:53;56.22;;;50.05;;
1995;SDS011;38556;47.068;15.408;2023-02-15T11:12:28;57.53;;;51.20;;
1995;SDS011;38556;47.068;15.408;2023-02-15T11:14:58;58.17;;;52.08;;
1995;SDS011;38556;47.068;15.408;2023-02-15T11:17:30;57.25;;;49.47;;
1995;SDS011;38556;47.068;15.408;2023-02-15T11:20:07;60.55;;;52.50;;
1995;SDS011;38556;47.068;15.408;2023-02-15T11:22:43;56.22;;;48.70;;
1995;SDS011;38556;47.068;15.408;2023-02-15T11:25:16;57.10;;;50.33;;
1995;SDS011;38556;47.068;15.408;2023-02-15T11:27:50;60.10;;;51.15;;
1995;SDS011;38556;47.068;15.408;2023-02-15T11:30:20;57.90;;;51.33;;
1995;SDS011;38556;47.068;15.408;2023-02-15T11:32:50;62.55;;;51.97;;
1995;SDS011;38556;47.068;15.408;2023-02-15T11:35:20;62.00;;;54.38;;
1995;SDS011;38556;47.068;15.408;2023-02-15T11:37:54;65.70;;;54.08;;
1995;SDS011;38556;47.068;15.408;2023-02-15T11:40:27;54.45;;;48.38;;
1995;SDS011;38556;47.068;15.408;2023-02-15T11:43:00;62.30;;;53.50;;
1995;SDS011;38556;47.068;15.408;2023-02-15T11:45:32;59.90;;;51.95;;
1995;SDS011;38556;47.068;15.408;2023-02-15T11:48:01;58.15;;;49.33;;
1995;SDS011;38556;47.068;15.408;2023-02-15T11:50:35;62.70;;;53.97;;
1995;SDS011;38556;47.068;15.408;2023-02-15T11:53:04;60.28;;;51.38;;
1995;SDS011;38556;47.068;15.408;2023-02-15T11:55:36;61.65;;;51.75;;
1995;SDS011;38556;47.068;15.408;2023-02-15T11:58:08;58.08;;;50.83;;
1995;SDS011;38556;47.068;15.408;2023-02-15T12:00:44;57.72;;;51.75;;
1995;SDS011;38556;47.068;15.408;2023-02-15T12:03:15;58.22;;;49.80;;
1995;SDS011;38556;47.068;15.408;2023-02-15T12:05:47;58.42;;;50.47;;
1995;SDS011;38556;47.068;15.408;2023-02-15T12:08:20;57.08;;;49.97;;
1995;SDS011;38556;47.068;15.408;2023-02-15T12:10:55;56.53;;;50.08;;
1995;SDS011;38556;47.068;15.408;2023-02-15T12:13:27;61.58;;;51.30;;
1995;SDS011;38556;47.068;15.408;2023-02-15T12:15:55;63.08;;;52.30;;
1995;SDS011;38556;47.068;15.408;2023-02-15T12:18:31;57.83;;;48.30;;
1995;SDS011;38556;47.068;15.408;2023-02-15T12:21:03;59.00;;;50.58;;
1995;SDS011;38556;47.068;15.408;2023-02-15T12:23:34;58.95;;;51.22;;
1995;SDS011;38556;47.068;15.408;2023-02-15T12:26:07;57.13;;;50.92;;
1995;SDS011;38556;47.068;15.408;2023-02-15T12:28:38;59.22;;;50.95;;
1995;SDS011;38556;47.068;15.408;2023-02-15T12:31:09;60.15;;;52.10;;
1995;SDS011;38556;47.068;15.408;2023-02-15T12:33:46;58.53;;;50.47;;
1995;SDS011;38556;47.068;15.408;2023-02-15T12:36:15;55.35;;;49.35;;
1995;SDS011;38556;47.068;15.408;2023-02-15T12:39:00;55.20;;;46.72;;
1995;SDS011;38556;47.068;15.408;2023-02-15T12:41:30;55.03;;;47.63;;
1995;SDS011;38556;47.068;15.408;2023-02-15T12:44:06;57.38;;;51.22;;
1995;SDS011;38556;47.068;15.408;2023-02-15T12:46:44;62.60;;;52.38;;
1995;SDS011;38556;47.068;15.408;2023-02-15T12:49:24;57.97;;;51.53;;
1995;SDS011;38556;47.068;15.408;2023-02-15T12:51:53;60.45;;;52.47;;
1995;SDS011;38556;47.068;15.408;2023-02-15T12:54:30;56.60;;;50.40;;
1995;SDS011;38556;47.068;15.408;2023-02-15T12:57:23;57.65;;;51.45;;
1995;SDS011;38556;47.068;15.408;2023-02-15T12:59:54;55.00;;;48.90;;
1995;SDS011;38556;47.068;15.408;2023-02-15T13:02:24;59.60;;;52.40;;
1995;SDS011;38556;47.068;15.408;2023-02-15T13:04:55;62.20;;;51.70;;
1995;SDS011;38556;47.068;15.408;2023-02-15T13:07:25;55.45;;;49.55;;
1995;SDS011;38556;47.068;15.408;2023-02-15T13:09:58;54.47;;;48.78;;
1995;SDS011;38556;47.068;15.408;2023-02-15T13:12:25;53.92;;;48.00;;
1995;SDS011;38556;47.068;15.408;2023-02-15T13:14:57;57.95;;;49.20;;
1995;SDS011;38556;47.068;15.408;2023-02-15T13:17:28;59.40;;;51.35;;
1995;SDS011;38556;47.068;15.408;2023-02-15T13:20:00;57.47;;;51.25;;
1995;SDS011;38556;47.068;15.408;2023-02-15T13:22:33;60.22;;;53.75;;
1995;SDS011;38556;47.068;15.408;2023-02-15T13:25:10;57.10;;;50.95;;
1995;SDS011;38556;47.068;15.408;2023-02-15T13:27:41;57.45;;;50.47;;
1995;SDS011;38556;47.068;15.408;2023-02-15T13:30:16;56.45;;;50.25;;
1995;SDS011;38556;47.068;15.408;2023-02-15T13:32:51;58.22;;;51.33;;
1995;SDS011;38556;47.068;15.408;2023-02-15T13:35:21;57.08;;;50.17;;
1995;SDS011;38556;47.068;15.408;2023-02-15T13:37:58;54.67;;;48.67;;
1995;SDS011;38556;47.068;15.408;2023-02-15T13:40:44;56.55;;;50.58;;
1995;SDS011;38556;47.068;15.408;2023-02-15T13:43:20;54.65;;;48.90;;
1995;SDS011;38556;47.068;15.408;2023-02-15T13:45:59;56.85;;;50.80;;
1995;SDS011;38556;47.068;15.408;2023-02-15T13:48:36;60.97;;;53.25;;
1995;SDS011;38556;47.068;15.408;2023-02-15T13:51:13;54.50;;;48.70;;
1995;SDS011;38556;47.068;15.408;2023-02-15T13:53:48;56.40;;;46.95;;
1995;SDS011;38556;47.068;15.408;2023-02-15T13:56:28;54.75;;;49.25;;
1995;SDS011;38556;47.068;15.408;2023-02-15T13:59:12;54.17;;;48.28;;
1995;SDS011;38556;47.068;15.408;2023-02-15T14:01:49;55.67;;;49.97;;
1995;SDS011;38556;47.068;15.408;2023-02-15T14:04:28;53.78;;;48.03;;
1995;SDS011;38556;47.068;15.408;2023-02-15T14:07:12;51.75;;;46.35;;
1995;SDS011;38556;47.068;15.408;2023-02-15T14:10:09;55.72;;;49.85;;
1995;SDS011;38556;47.068;15.408;2023-02-15T14:12:51;58.88;;;49.05;;
1995;SDS011;38556;47.068;15.408;2023-02-15T14:15:32;56.05;;;47.85;;
1995;SDS011;38556;47.068;15.408;2023-02-15T14:18:15;53.60;;;47.63;;
1995;SDS011;38556;47.068;15.408;2023-02-15T14:20:52;53.88;;;48.22;;
1995;SDS011;38556;47.068;15.408;2023-02-15T14:23:37;52.85;;;47.17;;
1995;SDS011;38556;47.068;15.408;2023-02-15T14:26:15;56.15;;;50.33;;
1995;SDS011;38556;47.068;15.408;2023-02-15T14:28:49;56.00;;;50.03;;
1995;SDS011;38556;47.068;15.408;2023-02-15T14:31:26;63.10;;;50.83;;
1995;SDS011;38556;47.068;15.408;2023-02-15T14:33:58;55.10;;;48.53;;
1995;SDS011;38556;47.068;15.408;2023-02-15T14:36:26;56.10;;;49.20;;
1995;SDS011;38556;47.068;15.408;2023-02-15T14:38:59;55.22;;;49.33;;
1995;SDS011;38556;47.068;15.408;2023-02-15T14:41:56;60.00;;;49.20;;
1995;SDS011;38556;47.068;15.408;2023-02-15T14:44:27;57.10;;;51.10;;
1995;SDS011;38556;47.068;15.408;2023-02-15T14:47:04;56.13;;;50.33;;
1995;SDS011;38556;47.068;15.408;2023-02-15T14:49:37;53.65;;;47.95;;
1995;SDS011;38556;47.068;15.408;2023-02-15T14:52:06;54.45;;;48.83;;
1995;SDS011;38556;47.068;15.408;2023-02-15T14:57:26;51.95;;;46.70;;
1995;SDS011;38556;47.068;15.408;2023-02-15T14:59:58;55.00;;;49.40;;
1995;SDS011;38556;47.068;15.408;2023-02-15T15:02:43;56.92;;;49.33;;
1995;SDS011;38556;47.068;15.408;2023-02-15T15:05:16;53.03;;;47.75;;
1995;SDS011;38556;47.068;15.408;2023-02-15T15:07:47;54.28;;;48.67;;
1995;SDS011;38556;47.068;15.408;2023-02-15T15:19:09;53.55;;;47.72;;